Time;durP1;ratioP1;P1;durP2;ratioP2;P2;SDS_P1;SDS_P2;PMS_P1;PMS_P2;Temp;Humidity;BMP_temperature;BMP_pressure;BME280_temperature;BME280_humidity;BME280_pressure;Samples;Min_cycle;Max_cycle;Signal;HPM_P1;HPM_P2
2023/06/16 00:00:23;;;;;;;;;;;;;;;;;;5100906;28;19952;-84
2023/06/16 00:03:15;;;;;;;;;;;;;;;;;;5100572;27;20463;-84
2023/06/16 00:06:03;;;;;;;;;;;;;;;;;;5090613;28;19912;-83
2023/06/16 00:08:51;;;;;;;;;;;;;;;;;;5102530;27;19912;-84
2023/06/16 00:11:38;;;;;;;;;;;;;;;;;;5094198;28;19924;-83
2023/06/16 00:14:24;;;;;;;;;;;;;;;;;;5104249;28;19920;-84
2023/06/16 00:17:12;;;;;;;;;;;;;;;;;;5110880;27;19920;-86
2023/06/16 00:19:59;;;;;;;;;;;;;;;;;;5100621;27;19935;-85
2023/06/16 00:22:47;;;;;;;;;;;;;;;;;;5099312;27;19938;-84
2023/06/16 00:25:34;;;;;;;;;;;;;;;;;;5095946;28;19916;-83
2023/06/16 00:28:20;;;;;;;;;;;;;;;;;;5100273;27;19923;-83
2023/06/16 00:31:07;;;;;;;;;;;;;;;;;;5098638;27;20298;-84
2023/06/16 00:33:53;;;;;;;;;;;;;;;;;;5103799;28;19919;-83
2023/06/16 00:36:40;;;;;;;;;;;;;;;;;;5100643;27;19920;-83
2023/06/16 00:39:26;;;;;;;;;;;;;;;;;;5094075;27;20337;-82
2023/06/16 00:42:13;;;;;;;;;;;;;;;;;;5091630;27;19916;-82
2023/06/16 00:44:59;;;;;;;;;;;;;;;;;;5096727;28;20156;-82
2023/06/16 00:47:46;;;;;;;;;;;;;;;;;;5100601;28;20268;-81
2023/06/16 00:50:32;;;;;;;;;;;;;;;;;;5111366;27;19931;-81
2023/06/16 00:53:19;;;;;;;;;;;;;;;;;;5103165;28;19923;-81
2023/06/16 00:56:05;;;;;;;;;;;;;;;;;;5102576;27;19920;-81
2023/06/16 00:58:52;;;;;;;;;;;;;;;;;;5110723;27;19916;-81
2023/06/16 01:01:39;;;;;;;;;;;;;;;;;;5093424;28;20511;-81
2023/06/16 01:04:26;;;;;;;;;;;;;;;;;;5092069;28;19915;-81
2023/06/16 01:07:12;;;;;;;;;;;;;;;;;;5103060;28;19941;-82
2023/06/16 01:09:59;;;;;;;;;;;;;;;;;;5100295;28;19923;-81
2023/06/16 01:12:45;;;;;;;;;;;;;;;;;;5081776;28;19927;-82
2023/06/16 01:15:32;;;;;;;;;;;;;;;;;;5092576;28;19927;-81
2023/06/16 01:18:22;;;;;;;;;;;;;;;;;;5090243;28;20371;-82
2023/06/16 01:21:09;;;;;;;;;;;;;;;;;;5070334;28;19932;-83
2023/06/16 01:23:56;;;;;;;;;;;;;;;;;;5067907;27;19939;-83
2023/06/16 06:22:06;;;;;;;;;;;;;;;;;;4949125;26;19932;-78
2023/06/16 06:24:53;;;;;;;;;;;;;;;;;;5025692;28;19921;-78
2023/06/16 06:27:39;;;;;;;;;;;;;;;;;;5023544;28;19931;-77
2023/06/16 06:30:27;;;;;;;;;;;;;;;;;;5013779;28;19924;-78
2023/06/16 06:36:27;;;;;;;;;;;;;;;;;;4986773;28;20659;-77
2023/06/16 06:39:13;;;;;;;;;;;;;;;;;;5006847;28;20561;-78
2023/06/16 06:42:00;;;;;;;;;;;;;;;;;;5028706;28;19928;-78
2023/06/16 06:44:46;;;;;;;;;;;;;;;;;;5026273;28;19917;-77
2023/06/16 06:47:33;;;;;;;;;;;;;;;;;;5023972;28;19927;-77
2023/06/16 06:50:19;;;;;;;;;;;;;;;;;;5011175;28;19927;-80
2023/06/16 06:53:06;;;;;;;;;;;;;;;;;;5025900;28;19921;-84
2023/06/16 06:55:52;;;;;;;;;;;;;;;;;;5021346;28;19933;-85
2023/06/16 06:58:39;;;;;;;;;;;;;;;;;;5026115;28;20085;-85
2023/06/16 07:01:25;;;;;;;;;;;;;;;;;;5025091;28;19928;-86
2023/06/16 07:04:12;;;;;;;;;;;;;;;;;;5026180;28;19917;-85
2023/06/16 07:06:58;;;;;;;;;;;;;;;;;;5022138;28;19967;-86
2023/06/16 07:09:45;;;;;;;;;;;;;;;;;;5018252;28;19925;-89
2023/06/16 07:12:31;;;;;;;;;;;;;;;;;;5024156;28;19929;-87
2023/06/16 07:15:18;;;;;;;;;;;;;;;;;;5022734;28;19921;-87
2023/06/16 07:18:05;;;;;;;;;;;;;;;;;;5011190;28;19918;-88
2023/06/16 07:20:51;;;;;;;;;;;;;;;;;;4998372;28;19921;-89
2023/06/16 07:23:38;;;;;;;;;;;;;;;;;;5003519;28;19960;-86
2023/06/16 07:26:25;;;;;;;;;;;;;;;;;;4993462;28;19917;-88
2023/06/16 07:29:11;;;;;;;;;;;;;;;;;;4988389;28;19918;-88
2023/06/16 07:31:57;;;;;;;;;;;;;;;;;;5003025;28;19935;-88
2023/06/16 07:34:45;;;;;;;;;;;;;;;;;;5007584;28;19921;-87
2023/06/16 07:37:32;;;;;;;;;;;;;;;;;;5006914;28;19943;-83
2023/06/16 07:40:18;;;;;;;;;;;;;;;;;;4996949;28;19947;-88
2023/06/16 07:43:05;;;;;;;;;;;;;;;;;;4985505;28;19920;-88
2023/06/16 07:45:51;;;;;;;;;;;;;;;;;;4990033;28;19921;-88
2023/06/16 07:48:38;;;;;;;;;;;;;;;;;;5004420;28;20377;-88
2023/06/16 07:51:25;;;;;;;;;;;;;;;;;;4994179;28;19933;-88
2023/06/16 07:54:11;;;;;;;;;;;;;;;;;;5006163;28;19928;-89
2023/06/16 07:56:58;;;;;;;;;;;;;;;;;;5003591;28;19932;-89
2023/06/16 07:59:44;;;;;;;;;;;;;;;;;;5003583;28;19921;-78
2023/06/16 08:02:31;;;;;;;;;;;;;;;;;;5004190;28;19926;-77
2023/06/16 08:05:18;;;;;;;;;;;;;;;;;;5012094;28;20400;-79
2023/06/16 08:08:04;;;;;;;;;;;;;;;;;;5004728;28;19928;-78
2023/06/16 08:10:51;;;;;;;;;;;;;;;;;;4995593;28;19932;-78
2023/06/16 08:13:37;;;;;;;;;;;;;;;;;;4986872;28;20343;-78
2023/06/16 08:16:24;;;;;;;;;;;;;;;;;;4997755;28;19928;-78
2023/06/16 08:19:10;;;;;;;;;;;;;;;;;;5008618;28;19928;-77
2023/06/16 08:21:57;;;;;;;;;;;;;;;;;;5004790;28;19929;-78
2023/06/16 08:24:44;;;;;;;;;;;;;;;;;;5007624;28;19921;-78
2023/06/16 08:27:30;;;;;;;;;;;;;;;;;;5006733;28;19921;-77
2023/06/16 08:30:17;;;;;;;;;;;;;;;;;;5008279;28;20434;-78
2023/06/16 08:33:05;;;;;;;;;;;;;;;;;;5002696;28;19922;-78
2023/06/16 08:35:52;;;;;;;;;;;;;;;;;;5002079;28;19922;-78
2023/06/16 08:38:38;;;;;;;;;;;;;;;;;;5001351;28;19962;-78
2023/06/16 08:41:25;;;;;;;;;;;;;;;;;;5007642;28;20364;-78
2023/06/16 08:44:13;;;;;;;;;;;;;;;;;;4998976;28;19917;-78
2023/06/16 08:46:59;;;;;;;;;;;;;;;;;;4996407;28;19920;-78
2023/06/16 08:49:54;;;;;;;;;;;;;;;;;;5003357;28;19921;-77
2023/06/16 08:52:40;;;;;;;;;;;;;;;;;;4988660;28;19925;-79
2023/06/16 08:55:29;;;;;;;;;;;;;;;;;;4990502;28;20403;-78
2023/06/16 08:58:15;;;;;;;;;;;;;;;;;;4992807;28;19921;-79
2023/06/16 09:01:02;;;;;;;;;;;;;;;;;;4996443;28;20322;-80
2023/06/16 09:03:49;;;;;;;;;;;;;;;;;;4989734;28;19921;-77
2023/06/16 09:06:35;;;;;;;;;;;;;;;;;;5013754;28;19928;-78
2023/06/16 09:09:22;;;;;;;;;;;;;;;;;;4999330;28;19922;-87
2023/06/16 09:12:08;;;;;;;;;;;;;;;;;;4999327;28;19930;-84
2023/06/16 09:14:55;;;;;;;;;;;;;;;;;;4997768;28;19922;-83
2023/06/16 09:17:42;;;;;;;;;;;;;;;;;;4998759;28;19923;-84
2023/06/16 09:20:31;;;;;;;;;;;;;;;;;;5005336;28;19929;-84
2023/06/16 09:23:17;;;;;;;;;;;;;;;;;;5001565;28;19936;-83
2023/06/16 09:26:04;;;;;;;;;;;;;;;;;;4994511;28;19922;-86
2023/06/16 09:28:51;;;;;;;;;;;;;;;;;;5000151;28;19921;-84
2023/06/16 09:31:37;;;;;;;;;;;;;;;;;;4998724;28;19933;-84
2023/06/16 09:34:24;;;;;;;;;;;;;;;;;;4993952;28;19956;-84
2023/06/16 09:37:10;;;;;;;;;;;;;;;;;;5008183;28;19929;-84
2023/06/16 09:39:57;;;;;;;;;;;;;;;;;;4998489;28;20581;-84
2023/06/16 09:42:43;;;;;;;;;;;;;;;;;;5005422;28;19922;-84
2023/06/16 09:45:30;;;;;;;;;;;;;;;;;;4999384;28;19925;-84
2023/06/16 09:48:16;;;;;;;;;;;;;;;;;;5002081;28;19917;-87
2023/06/16 09:51:03;;;;;;;;;;;;;;;;;;5004473;28;20390;-86
2023/06/16 09:53:49;;;;;;;;;;;;;;;;;;5002492;28;19926;-86
2023/06/16 09:56:36;;;;;;;;;;;;;;;;;;4994652;28;20157;-86
2023/06/16 09:59:25;;;;;;;;;;;;;;;;;;5009313;28;19921;-88
2023/06/16 10:02:12;;;;;;;;;;;;;;;;;;4990585;28;19925;-86
2023/06/16 10:04:59;;;;;;;;;;;;;;;;;;5006864;28;19921;-85
2023/06/16 10:07:45;;;;;;;;;;;;;;;;;;5008879;28;19928;-83
2023/06/16 10:10:33;;;;;;;;;;;;;;;;;;4995525;28;19928;-83
2023/06/16 10:13:21;;;;;;;;;;;;;;;;;;5008337;28;19924;-83
2023/06/16 10:16:08;;;;;;;;;;;;;;;;;;5009953;28;19936;-83
2023/06/16 10:18:56;;;;;;;;;;;;;;;;;;5021546;28;19922;-82
2023/06/16 10:21:44;;;;;;;;;;;;;;;;;;5006766;28;20008;-82
2023/06/16 10:24:31;;;;;;;;;;;;;;;;;;5003211;28;19928;-82
2023/06/16 10:27:17;;;;;;;;;;;;;;;;;;5009582;28;19947;-81
2023/06/16 10:30:04;;;;;;;;;;;;;;;;;;5006501;28;20432;-82
2023/06/16 10:32:52;;;;;;;;;;;;;;;;;;4985481;28;19933;-84
2023/06/16 10:35:39;;;;;;;;;;;;;;;;;;4993464;28;20398;-82
2023/06/16 10:38:25;;;;;;;;;;;;;;;;;;5002330;28;19928;-83
2023/06/16 10:41:14;;;;;;;;;;;;;;;;;;5010131;28;19921;-83
2023/06/16 10:44:01;;;;;;;;;;;;;;;;;;5007074;28;20459;-83
2023/06/16 10:46:47;;;;;;;;;;;;;;;;;;5004715;28;20382;-82
2023/06/16 10:49:33;;;;;;;;;;;;;;;;;;5008089;28;19917;-82
2023/06/16 10:52:20;;;;;;;;;;;;;;;;;;5008213;28;20451;-82
2023/06/16 10:55:06;;;;;;;;;;;;;;;;;;5003044;28;19933;-83
2023/06/16 10:57:53;;;;;;;;;;;;;;;;;;5000484;28;19925;-83
2023/06/16 11:00:39;;;;;;;;;;;;;;;;;;5003648;28;19917;-82
2023/06/16 11:03:26;;;;;;;;;;;;;;;;;;5000427;28;19921;-82
2023/06/16 11:06:12;;;;;;;;;;;;;;;;;;5007688;28;19921;-74
2023/06/16 11:08:59;;;;;;;;;;;;;;;;;;5000419;28;20300;-74
2023/06/16 11:11:45;;;;;;;;;;;;;;;;;;5006900;28;19932;-74
2023/06/16 11:14:32;;;;;;;;;;;;;;;;;;5006196;28;19936;-74
2023/06/16 11:17:18;;;;;;;;;;;;;;;;;;4999170;28;19928;-75
2023/06/16 11:20:06;;;;;;;;;;;;;;;;;;5011605;28;20407;-74
2023/06/16 11:22:52;;;;;;;;;;;;;;;;;;5008481;28;19926;-75
2023/06/16 11:25:39;;;;;;;;;;;;;;;;;;5005483;28;19922;-75
2023/06/16 11:28:25;;;;;;;;;;;;;;;;;;5007614;28;19929;-75
2023/06/16 11:31:12;;;;;;;;;;;;;;;;;;5005502;28;20296;-76
2023/06/16 11:33:58;;;;;;;;;;;;;;;;;;5001167;28;20392;-74
2023/06/16 11:36:45;;;;;;;;;;;;;;;;;;5005770;28;19928;-74
2023/06/16 11:39:31;;;;;;;;;;;;;;;;;;5006444;28;19921;-74
2023/06/16 11:42:18;;;;;;;;;;;;;;;;;;5002367;28;19922;-76
2023/06/16 11:45:04;;;;;;;;;;;;;;;;;;5005091;28;19932;-74
2023/06/16 11:47:51;;;;;;;;;;;;;;;;;;5002143;28;19922;-75
2023/06/16 11:50:37;;;;;;;;;;;;;;;;;;5004295;28;19932;-76
2023/06/16 11:53:24;;;;;;;;;;;;;;;;;;4990955;28;20407;-77
2023/06/16 11:56:13;;;;;;;;;;;;;;;;;;5009059;28;19925;-77
2023/06/16 11:59:01;;;;;;;;;;;;;;;;;;5010858;28;19928;-78
2023/06/16 12:01:47;;;;;;;;;;;;;;;;;;5000332;28;20487;-76
2023/06/16 12:04:34;;;;;;;;;;;;;;;;;;5007402;28;20406;-76
2023/06/16 12:07:20;;;;;;;;;;;;;;;;;;5005390;28;20474;-77
2023/06/16 12:10:07;;;;;;;;;;;;;;;;;;4999745;28;19918;-76
2023/06/16 12:12:53;;;;;;;;;;;;;;;;;;5007754;28;19926;-76
2023/06/16 12:15:40;;;;;;;;;;;;;;;;;;5006918;28;19960;-76
2023/06/16 12:18:26;;;;;;;;;;;;;;;;;;5006405;28;19921;-77
2023/06/16 12:21:13;;;;;;;;;;;;;;;;;;4995800;28;20254;-76
2023/06/16 12:23:59;;;;;;;;;;;;;;;;;;5010006;28;19917;-89
2023/06/16 12:26:46;;;;;;;;;;;;;;;;;;5003820;28;20434;-86
2023/06/16 12:29:32;;;;;;;;;;;;;;;;;;5008642;28;19918;-86
2023/06/16 12:32:22;;;;;;;;;;;;;;;;;;4998941;28;19929;-87
2023/06/16 12:35:09;;;;;;;;;;;;;;;;;;5001214;28;19922;-87
2023/06/16 12:37:55;;;;;;;;;;;;;;;;;;5002023;28;19944;-90
2023/06/16 12:40:42;;;;;;;;;;;;;;;;;;5000261;28;19922;-87
2023/06/16 12:43:29;;;;;;;;;;;;;;;;;;5006705;28;19924;-92
2023/06/16 12:46:16;;;;;;;;;;;;;;;;;;5005893;28;19921;-88
2023/06/16 12:49:03;;;;;;;;;;;;;;;;;;5004997;28;19918;-89
2023/06/16 12:51:49;;;;;;;;;;;;;;;;;;5006184;28;19933;-90
2023/06/16 12:54:36;;;;;;;;;;;;;;;;;;5003691;28;19929;-90
2023/06/16 12:57:22;;;;;;;;;;;;;;;;;;5002821;28;19920;-90
2023/06/16 13:00:09;;;;;;;;;;;;;;;;;;5006614;28;19921;-88
2023/06/16 13:02:58;;;;;;;;;;;;;;;;;;5009017;28;20376;-87
2023/06/16 13:05:45;;;;;;;;;;;;;;;;;;5010506;28;20462;-85
2023/06/16 13:08:34;;;;;;;;;;;;;;;;;;5008038;28;20451;-89
2023/06/16 13:11:21;;;;;;;;;;;;;;;;;;4995100;28;19933;-88
2023/06/16 13:14:07;;;;;;;;;;;;;;;;;;5003303;28;19925;-90
2023/06/16 13:16:54;;;;;;;;;;;;;;;;;;5008450;28;19917;-88
2023/06/16 13:19:40;;;;;;;;;;;;;;;;;;5002615;28;19977;-90
2023/06/16 13:22:28;;;;;;;;;;;;;;;;;;5009329;28;19933;-90
2023/06/16 13:25:14;;;;;;;;;;;;;;;;;;5007878;28;20373;-84
2023/06/16 13:28:02;;;;;;;;;;;;;;;;;;5000259;28;20624;-88
2023/06/16 13:30:48;;;;;;;;;;;;;;;;;;5004619;28;19921;-92
2023/06/16 13:33:37;;;;;;;;;;;;;;;;;;5009763;28;19922;-90
2023/06/16 13:36:24;;;;;;;;;;;;;;;;;;5002667;28;19918;-84
2023/06/16 13:39:10;;;;;;;;;;;;;;;;;;5003326;28;19924;-85
2023/06/16 13:41:57;;;;;;;;;;;;;;;;;;5010327;28;19933;-84
2023/06/16 13:44:46;;;;;;;;;;;;;;;;;;4992728;28;20423;-86
2023/06/16 13:47:35;;;;;;;;;;;;;;;;;;4998266;28;19924;-84
2023/06/16 13:50:22;;;;;;;;;;;;;;;;;;5006996;28;19933;-84
2023/06/16 13:53:08;;;;;;;;;;;;;;;;;;4993758;28;19925;-83
2023/06/16 13:55:55;;;;;;;;;;;;;;;;;;5003672;28;20540;-84
2023/06/16 13:58:41;;;;;;;;;;;;;;;;;;5002306;28;19928;-82
2023/06/16 14:01:28;;;;;;;;;;;;;;;;;;5002305;28;19948;-84
2023/06/16 14:04:14;;;;;;;;;;;;;;;;;;5010398;28;20399;-84
2023/06/16 14:07:01;;;;;;;;;;;;;;;;;;5015526;28;19922;-84
2023/06/16 14:09:47;;;;;;;;;;;;;;;;;;5005125;28;19925;-85
2023/06/16 14:12:34;;;;;;;;;;;;;;;;;;5001593;28;19927;-84
2023/06/16 14:15:21;;;;;;;;;;;;;;;;;;5007059;28;19922;-84
2023/06/16 14:18:07;;;;;;;;;;;;;;;;;;5012069;28;20265;-86
2023/06/16 14:20:54;;;;;;;;;;;;;;;;;;5005795;28;19922;-84
2023/06/16 14:23:40;;;;;;;;;;;;;;;;;;5004228;28;19951;-83
2023/06/16 14:26:27;;;;;;;;;;;;;;;;;;5009538;28;20639;-84
2023/06/16 14:29:13;;;;;;;;;;;;;;;;;;5005237;28;19921;-84
2023/06/16 14:32:00;;;;;;;;;;;;;;;;;;5007308;28;19917;-85
2023/06/16 14:34:46;;;;;;;;;;;;;;;;;;5004192;28;19921;-84
2023/06/16 14:37:33;;;;;;;;;;;;;;;;;;5010115;28;20014;-85
2023/06/16 14:40:19;;;;;;;;;;;;;;;;;;5009551;28;20547;-85
2023/06/16 14:43:06;;;;;;;;;;;;;;;;;;5001816;28;19929;-85
2023/06/16 14:45:52;;;;;;;;;;;;;;;;;;4997837;28;19924;-85
2023/06/16 14:48:39;;;;;;;;;;;;;;;;;;5003773;28;20288;-84
2023/06/16 14:51:25;;;;;;;;;;;;;;;;;;5004081;28;19925;-84
2023/06/16 14:54:12;;;;;;;;;;;;;;;;;;5008428;28;20676;-84
2023/06/16 14:56:58;;;;;;;;;;;;;;;;;;5015896;28;19922;-83
2023/06/16 14:59:45;;;;;;;;;;;;;;;;;;5007686;28;19952;-84
2023/06/16 15:02:31;;;;;;;;;;;;;;;;;;5011162;28;19922;-84
2023/06/16 15:05:18;;;;;;;;;;;;;;;;;;5007517;28;19926;-85
2023/06/16 15:08:05;;;;;;;;;;;;;;;;;;5002274;28;19918;-83
2023/06/16 15:10:51;;;;;;;;;;;;;;;;;;5001327;28;19918;-83
2023/06/16 15:13:38;;;;;;;;;;;;;;;;;;4995865;28;20462;-84
2023/06/16 15:16:25;;;;;;;;;;;;;;;;;;5011995;28;19921;-83
2023/06/16 15:19:11;;;;;;;;;;;;;;;;;;5006320;28;20331;-86
2023/06/16 15:21:58;;;;;;;;;;;;;;;;;;5006970;28;19964;-85
2023/06/16 15:24:45;;;;;;;;;;;;;;;;;;5006222;28;19918;-82
2023/06/16 15:27:31;;;;;;;;;;;;;;;;;;5003297;28;19921;-85
2023/06/16 15:30:18;;;;;;;;;;;;;;;;;;5005789;28;19928;-84
2023/06/16 15:33:04;;;;;;;;;;;;;;;;;;5002522;28;20447;-84
2023/06/16 15:35:51;;;;;;;;;;;;;;;;;;5008923;28;19921;-86
2023/06/16 15:38:40;;;;;;;;;;;;;;;;;;4988229;28;19944;-85
2023/06/16 15:41:27;;;;;;;;;;;;;;;;;;5006398;28;19921;-85
2023/06/16 15:44:13;;;;;;;;;;;;;;;;;;5004012;28;19940;-84
2023/06/16 15:47:00;;;;;;;;;;;;;;;;;;5006862;28;19928;-85
2023/06/16 15:49:46;;;;;;;;;;;;;;;;;;5000726;28;19952;-84
2023/06/16 15:52:34;;;;;;;;;;;;;;;;;;4997047;28;19925;-84
2023/06/16 15:55:20;;;;;;;;;;;;;;;;;;4999982;28;19924;-83
2023/06/16 15:58:07;;;;;;;;;;;;;;;;;;4996842;28;20037;-84
2023/06/16 16:00:53;;;;;;;;;;;;;;;;;;4994317;28;19917;-84
2023/06/16 16:03:40;;;;;;;;;;;;;;;;;;4996444;28;20383;-85
2023/06/16 16:06:26;;;;;;;;;;;;;;;;;;4996564;28;19921;-85
2023/06/16 16:09:13;;;;;;;;;;;;;;;;;;5001203;28;19944;-88
2023/06/16 16:11:59;;;;;;;;;;;;;;;;;;4996317;28;19929;-86
2023/06/16 16:14:46;;;;;;;;;;;;;;;;;;5000186;28;19921;-84
2023/06/16 16:17:33;;;;;;;;;;;;;;;;;;4990746;28;19921;-86
2023/06/16 16:20:19;;;;;;;;;;;;;;;;;;5006930;28;19944;-85
2023/06/16 16:23:06;;;;;;;;;;;;;;;;;;5002169;28;19925;-85
2023/06/16 16:25:52;;;;;;;;;;;;;;;;;;5007128;28;20364;-85
2023/06/16 16:28:39;;;;;;;;;;;;;;;;;;5004496;28;19921;-85
2023/06/16 16:31:25;;;;;;;;;;;;;;;;;;4997185;28;19932;-85
2023/06/16 16:34:12;;;;;;;;;;;;;;;;;;5010143;28;19925;-85
2023/06/16 16:36:58;;;;;;;;;;;;;;;;;;5008405;28;19921;-85
2023/06/16 16:39:45;;;;;;;;;;;;;;;;;;5007160;28;20412;-85
2023/06/16 16:42:31;;;;;;;;;;;;;;;;;;5002520;28;19928;-85
2023/06/16 16:45:18;;;;;;;;;;;;;;;;;;4996970;28;19926;-82
2023/06/16 16:48:04;;;;;;;;;;;;;;;;;;5003401;28;19925;-85
2023/06/16 16:50:54;;;;;;;;;;;;;;;;;;4999074;28;19942;-84
2023/06/16 16:53:40;;;;;;;;;;;;;;;;;;4997699;28;19929;-85
2023/06/16 16:56:27;;;;;;;;;;;;;;;;;;5002183;28;20594;-86
2023/06/16 16:59:13;;;;;;;;;;;;;;;;;;5002520;28;19925;-85
2023/06/16 17:02:00;;;;;;;;;;;;;;;;;;5006004;28;20289;-87
2023/06/16 17:04:49;;;;;;;;;;;;;;;;;;4989950;28;20407;-85
2023/06/16 17:07:36;;;;;;;;;;;;;;;;;;4985291;28;20487;-83
2023/06/16 17:10:22;;;;;;;;;;;;;;;;;;4993121;28;19917;-84
2023/06/16 17:13:09;;;;;;;;;;;;;;;;;;4995590;28;19926;-84
2023/06/16 17:15:56;;;;;;;;;;;;;;;;;;5002656;28;19925;-84
2023/06/16 17:18:45;;;;;;;;;;;;;;;;;;5004366;28;20427;-84
2023/06/16 17:21:31;;;;;;;;;;;;;;;;;;5007392;28;19930;-84
2023/06/16 17:24:18;;;;;;;;;;;;;;;;;;4990466;28;19927;-83
2023/06/16 17:27:04;;;;;;;;;;;;;;;;;;5002652;28;19921;-84
2023/06/16 17:29:51;;;;;;;;;;;;;;;;;;4990309;28;20636;-84
2023/06/16 17:32:37;;;;;;;;;;;;;;;;;;5008197;28;20055;-84
2023/06/16 17:35:24;;;;;;;;;;;;;;;;;;5002129;28;19924;-85
2023/06/16 17:38:10;;;;;;;;;;;;;;;;;;5000634;28;19914;-83
2023/06/16 17:40:57;;;;;;;;;;;;;;;;;;5002213;28;20512;-84
2023/06/16 17:43:44;;;;;;;;;;;;;;;;;;4999878;28;20032;-83
2023/06/16 17:46:32;;;;;;;;;;;;;;;;;;5006947;28;19960;-83
2023/06/16 17:49:21;;;;;;;;;;;;;;;;;;4995817;28;19932;-83
2023/06/16 17:52:10;;;;;;;;;;;;;;;;;;4990403;28;20392;-85
2023/06/16 17:54:57;;;;;;;;;;;;;;;;;;4998363;28;19924;-83
2023/06/16 17:57:43;;;;;;;;;;;;;;;;;;5004049;28;19918;-88
2023/06/16 18:00:30;;;;;;;;;;;;;;;;;;5004410;28;19917;-84
2023/06/16 18:03:18;;;;;;;;;;;;;;;;;;5007770;28;19952;-85
2023/06/16 18:06:05;;;;;;;;;;;;;;;;;;4999599;28;19914;-86
2023/06/16 18:08:52;;;;;;;;;;;;;;;;;;4978615;28;19922;-85
2023/06/16 18:11:38;;;;;;;;;;;;;;;;;;4997200;28;19932;-81
2023/06/16 18:14:30;;;;;;;;;;;;;;;;;;5004470;28;20465;-82
2023/06/16 18:17:16;;;;;;;;;;;;;;;;;;5005353;28;19929;-82
2023/06/16 18:20:03;;;;;;;;;;;;;;;;;;5003819;28;20584;-80
2023/06/16 18:22:51;;;;;;;;;;;;;;;;;;5008001;28;19931;-81
2023/06/16 18:25:38;;;;;;;;;;;;;;;;;;5004176;28;21521;-82
2023/06/16 18:28:24;;;;;;;;;;;;;;;;;;4991032;28;19925;-82
2023/06/16 18:31:11;;;;;;;;;;;;;;;;;;5006480;28;19921;-84
2023/06/16 18:33:58;;;;;;;;;;;;;;;;;;5003544;28;19925;-83
2023/06/16 18:36:45;;;;;;;;;;;;;;;;;;5008765;28;19918;-83
2023/06/16 18:39:33;;;;;;;;;;;;;;;;;;5003034;28;19921;-90
2023/06/16 18:42:20;;;;;;;;;;;;;;;;;;4989632;28;19918;-83
2023/06/16 18:45:06;;;;;;;;;;;;;;;;;;5000931;28;19928;-85
2023/06/16 18:47:54;;;;;;;;;;;;;;;;;;5000216;28;19921;-85
2023/06/16 18:50:40;;;;;;;;;;;;;;;;;;4997845;28;19936;-83
2023/06/16 18:53:27;;;;;;;;;;;;;;;;;;5005690;28;19929;-83
2023/06/16 18:56:13;;;;;;;;;;;;;;;;;;5005000;28;20280;-83
2023/06/16 18:59:00;;;;;;;;;;;;;;;;;;4986957;28;19914;-83
2023/06/16 19:01:46;;;;;;;;;;;;;;;;;;5001029;28;19921;-84
2023/06/16 19:04:33;;;;;;;;;;;;;;;;;;5007366;28;19921;-83
2023/06/16 19:07:20;;;;;;;;;;;;;;;;;;5007252;28;20590;-83
2023/06/16 19:10:06;;;;;;;;;;;;;;;;;;5000436;28;19929;-83
2023/06/16 19:12:53;;;;;;;;;;;;;;;;;;4987372;28;19926;-83
2023/06/16 19:15:40;;;;;;;;;;;;;;;;;;4993029;28;19925;-83
2023/06/16 19:18:26;;;;;;;;;;;;;;;;;;4990597;28;19918;-83
2023/06/16 19:21:13;;;;;;;;;;;;;;;;;;4996942;28;19930;-83
2023/06/16 19:24:00;;;;;;;;;;;;;;;;;;4999317;28;20395;-82
2023/06/16 19:26:46;;;;;;;;;;;;;;;;;;5003768;28;19929;-83
2023/06/16 19:29:33;;;;;;;;;;;;;;;;;;4995681;28;19924;-83
2023/06/16 19:32:19;;;;;;;;;;;;;;;;;;5010102;28;19936;-84
2023/06/16 19:35:06;;;;;;;;;;;;;;;;;;4996828;28;19917;-82
2023/06/16 19:37:52;;;;;;;;;;;;;;;;;;5003497;28;20377;-82
2023/06/16 19:40:39;;;;;;;;;;;;;;;;;;5003249;28;19932;-82
2023/06/16 19:43:25;;;;;;;;;;;;;;;;;;5001634;28;19936;-83
2023/06/16 19:46:11;;;;;;;;;;;;;;;;;;5002477;28;20405;-83
2023/06/16 19:48:58;;;;;;;;;;;;;;;;;;5004461;28;20354;-83
2023/06/16 19:51:44;;;;;;;;;;;;;;;;;;4999696;28;19917;-83
2023/06/16 19:54:31;;;;;;;;;;;;;;;;;;4996016;28;19932;-83
2023/06/16 19:57:19;;;;;;;;;;;;;;;;;;5005874;28;19933;-84
2023/06/16 20:00:06;;;;;;;;;;;;;;;;;;5008355;28;19920;-86
2023/06/16 20:02:53;;;;;;;;;;;;;;;;;;5001327;28;19918;-85
2023/06/16 20:05:40;;;;;;;;;;;;;;;;;;4997765;28;19921;-85
2023/06/16 20:08:27;;;;;;;;;;;;;;;;;;5002324;28;19922;-82
2023/06/16 20:11:14;;;;;;;;;;;;;;;;;;5001007;28;19940;-82
2023/06/16 20:14:00;;;;;;;;;;;;;;;;;;5003117;28;19925;-85
2023/06/16 20:16:48;;;;;;;;;;;;;;;;;;4976511;28;19929;-90
2023/06/16 20:19:44;;;;;;;;;;;;;;;;;;4974954;28;19914;-90
2023/06/16 20:22:41;;;;;;;;;;;;;;;;;;4988915;28;19932;-85
2023/06/16 20:25:31;;;;;;;;;;;;;;;;;;4989228;28;19926;-88
2023/06/16 20:28:19;;;;;;;;;;;;;;;;;;4974567;28;23651;-88
2023/06/16 20:31:06;;;;;;;;;;;;;;;;;;4990326;28;20368;-89
2023/06/16 20:33:53;;;;;;;;;;;;;;;;;;4909060;28;20439;-88
2023/06/16 20:42:50;;;;;;;;;;;;;;;;;;4939555;28;19914;-84
2023/06/16 20:48:56;;;;;;;;;;;;;;;;;;4944330;28;20235;-84
2023/06/16 20:52:00;;;;;;;;;;;;;;;;;;4944675;28;19928;-85
2023/06/16 20:54:51;;;;;;;;;;;;;;;;;;4906103;28;19930;-88
2023/06/16 20:57:38;;;;;;;;;;;;;;;;;;4889883;28;19926;-83
2023/06/16 21:00:27;;;;;;;;;;;;;;;;;;4988110;28;19960;-82
2023/06/16 21:06:41;;;;;;;;;;;;;;;;;;4962915;28;19926;-84
2023/06/16 21:09:43;;;;;;;;;;;;;;;;;;;;;
2023/06/16 21:12:37;;;;;;;;;;;;;;;;;;4977512;28;19936;-86
2023/06/16 21:15:30;;;;;;;;;;;;;;;;;;4978563;28;19925;-85
2023/06/16 21:18:23;;;;;;;;;;;;;;;;;;4997577;28;19921;-89
2023/06/16 21:24:21;;;;;;;;;;;;;;;;;;4974009;28;19940;-85
2023/06/16 21:27:13;;;;;;;;;;;;;;;;;;4943663;28;20460;-88
2023/06/16 21:30:02;;;;;;;;;;;;;;;;;;4950724;28;20393;-89
2023/06/16 21:32:58;;;;;;;;;;;;;;;;;;4888999;28;19957;-90
2023/06/16 21:39:03;;;;;;;;;;;;;;;;;;4944483;28;20408;-93
2023/06/16 21:41:52;;;;;;;;;;;;;;;;;;4934721;28;19945;-82
2023/06/16 21:47:57;;;;;;;;;;;;;;;;;;4962007;28;20080;-83
2023/06/16 21:50:43;;;;;;;;;;;;;;;;;;4925533;28;19970;-84
2023/06/16 21:53:40;;;;;;;;;;;;;;;;;;4972380;28;19925;-83
2023/06/16 21:56:27;;;;;;;;;;;;;;;;;;4981047;28;19929;-83
2023/06/16 21:59:16;;;;;;;;;;;;;;;;;;4981047;28;19933;-80
2023/06/16 22:02:03;;;;;;;;;;;;;;;;;;5005873;28;19917;-82
2023/06/16 22:04:53;;;;;;;;;;;;;;;;;;4979121;28;19925;-85
2023/06/16 22:07:40;;;;;;;;;;;;;;;;;;4959375;28;19920;-82
2023/06/16 22:10:29;;;;;;;;;;;;;;;;;;4981210;28;19921;-83
2023/06/16 22:16:25;;;;;;;;;;;;;;;;;;4993814;28;20435;-84
2023/06/16 22:19:12;;;;;;;;;;;;;;;;;;5002490;28;19967;-81
2023/06/16 22:21:59;;;;;;;;;;;;;;;;;;5001036;28;21325;-82
2023/06/16 22:27:58;;;;;;;;;;;;;;;;;;5001942;28;20085;-82
2023/06/16 22:30:48;;;;;;;;;;;;;;;;;;4999375;28;19921;-81
2023/06/16 22:33:35;;;;;;;;;;;;;;;;;;5001461;28;20257;-82
2023/06/16 22:36:21;;;;;;;;;;;;;;;;;;4981178;28;19922;-82
2023/06/16 22:39:08;;;;;;;;;;;;;;;;;;4996752;28;20029;-82
2023/06/16 22:41:54;;;;;;;;;;;;;;;;;;4994294;28;19925;-82
2023/06/16 22:44:42;;;;;;;;;;;;;;;;;;4991280;28;19929;-81
2023/06/16 22:47:29;;;;;;;;;;;;;;;;;;5003108;28;20290;-80
2023/06/16 22:50:15;;;;;;;;;;;;;;;;;;4992785;28;19941;-82
2023/06/16 22:53:02;;;;;;;;;;;;;;;;;;5002611;28;20000;-82
2023/06/16 22:55:48;;;;;;;;;;;;;;;;;;4985032;28;19946;-84
2023/06/16 22:58:35;;;;;;;;;;;;;;;;;;5001864;28;20369;-81
2023/06/16 23:01:21;;;;;;;;;;;;;;;;;;5012879;28;19921;-83
2023/06/16 23:04:08;;;;;;;;;;;;;;;;;;4993941;28;19921;-82
2023/06/16 23:06:54;;;;;;;;;;;;;;;;;;5002760;28;19928;-82
2023/06/16 23:09:41;;;;;;;;;;;;;;;;;;4994936;28;19917;-82
2023/06/16 23:12:27;;;;;;;;;;;;;;;;;;4997970;28;19948;-80
2023/06/16 23:15:14;;;;;;;;;;;;;;;;;;5001038;28;20411;-81
2023/06/16 23:18:00;;;;;;;;;;;;;;;;;;4999611;28;20372;-81
2023/06/16 23:20:47;;;;;;;;;;;;;;;;;;5003482;28;19922;-81
2023/06/16 23:23:35;;;;;;;;;;;;;;;;;;4989425;28;19937;-81
2023/06/16 23:26:22;;;;;;;;;;;;;;;;;;4996644;28;19928;-81
2023/06/16 23:29:08;;;;;;;;;;;;;;;;;;4999803;28;19921;-80
2023/06/16 23:31:55;;;;;;;;;;;;;;;;;;5002604;28;19917;-80
2023/06/16 23:34:42;;;;;;;;;;;;;;;;;;5000904;28;19925;-81
2023/06/16 23:37:28;;;;;;;;;;;;;;;;;;4999012;28;19929;-81
2023/06/16 23:40:15;;;;;;;;;;;;;;;;;;5002235;28;19917;-81
2023/06/16 23:43:01;;;;;;;;;;;;;;;;;;4994259;28;19959;-80
2023/06/16 23:45:48;;;;;;;;;;;;;;;;;;5004856;28;19914;-80
2023/06/16 23:48:34;;;;;;;;;;;;;;;;;;4996598;28;19924;-80
2023/06/16 23:51:21;;;;;;;;;;;;;;;;;;5003884;28;19914;-80
2023/06/16 23:54:07;;;;;;;;;;;;;;;;;;4998208;28;19926;-79
2023/06/16 23:56:54;;;;;;;;;;;;;;;;;;5000363;28;20492;-79
2023/06/16 23:59:40;;;;;;;;;;;;;;;;;;5008876;28;19932;-79
